Log in
NYSE:TPL

Texas Pacific Land Trust Insider Trades

$472.98
-5.00 (-1.05 %)
(As of 10/26/2020 12:00 AM ET)
Add
Compare
Today's Range
$463.00
Now: $472.98
$476.79
50-Day Range
$441.70
MA: $467.71
$510.69
52-Week Range
$295.05
Now: $472.98
$838.50
Volume16,386 shs
Average Volume31,507 shs
Market Capitalization$3.67 billion
P/E Ratio16.95
Dividend Yield2.09%
Beta1.93

Insider Trades

Texas Pacific Land Trust (NYSE:TPL) Insider Buying and Selling Activity

Insider Ownership Percentage: 0.92%
Insider Buying (Last 12 Months): $5,444,500.76
Insider Selling (Last 12 Months): $0.00

Insider Buying and Selling by Quarter


Texas Pacific Land Trust (NYSE TPL) Insider Trading History

Transaction DateInsider NameTitleBuy/SellNumber of SharesAverage Share PriceTotal TransactionShares Held After TransactionDetails
10/23/2020Kinetics Asset Managem HorizonMajor ShareholderBuy14$477.98$6,691.72  
10/21/2020Kinetics Asset Managem HorizonMajor ShareholderBuy14$463.05$6,482.70  
10/19/2020Kinetics Asset Managem HorizonMajor ShareholderBuy14$472.00$6,608.00  
10/16/2020Kinetics Asset Managem HorizonMajor ShareholderBuy14$469.42$6,571.88  
10/14/2020Kinetics Asset Managem HorizonMajor ShareholderBuy15$465.01$6,975.15  
10/12/2020Kinetics Asset Managem HorizonMajor ShareholderBuy14$471.99$6,607.86  
10/9/2020Kinetics Asset Managem HorizonMajor ShareholderBuy14$466.60$6,532.40  
10/7/2020Kinetics Asset Managem HorizonMajor ShareholderBuy14$472.98$6,621.72  
10/5/2020Kinetics Asset Managem HorizonMajor ShareholderBuy14$455.11$6,371.54  
10/2/2020Kinetics Asset Managem HorizonMajor ShareholderBuy14$448.10$6,273.40  
9/30/2020Kinetics Asset Managem HorizonMajor ShareholderBuy14$451.56$6,321.84  
9/28/2020Kinetics Asset Managem HorizonMajor ShareholderBuy14$461.48$6,460.72  
9/25/2020Kinetics Asset Managem HorizonMajor ShareholderBuy14$451.00$6,314.00  
9/23/2020Kinetics Asset Managem HorizonMajor ShareholderBuy14$441.70$6,183.80  
9/21/2020Kinetics Asset Managem HorizonMajor ShareholderBuy14$459.56$6,433.84  
9/18/2020Kinetics Asset Managem HorizonMajor ShareholderBuy14$457.99$6,411.86  
9/16/2020Kinetics Asset Managem HorizonMajor ShareholderBuy4$458.56$1,834.24  
9/10/2020Kinetics Asset Managem HorizonMajor ShareholderBuy5$481.00$2,405.00  
9/8/2020Kinetics Asset Managem HorizonMajor ShareholderBuy14$494.03$6,916.42  
9/3/2020Kinetics Asset Managem HorizonMajor ShareholderBuy14$527.32$7,382.48  
8/31/2020Kinetics Asset Managem HorizonMajor ShareholderBuy12$526.72$6,320.64  
8/26/2020Kinetics Asset Managem HorizonMajor ShareholderBuy12$542.78$6,513.36  
8/24/2020Kinetics Asset Managem HorizonMajor ShareholderBuy12$543.08$6,516.96  
8/20/2020Kinetics Asset Managem HorizonMajor ShareholderBuy12$559.47$6,713.64  
8/18/2020Kinetics Asset Managem HorizonMajor ShareholderBuy12$587.35$7,048.20  
8/13/2020Kinetics Asset Managem HorizonMajor ShareholderBuy26$588.99$15,313.74  
8/10/2020Kinetics Asset Managem HorizonMajor ShareholderBuy16$599.00$9,584.00  
8/7/2020Kinetics Asset Managem HorizonMajor ShareholderBuy8$584.00$4,672.00  
8/5/2020Kinetics Asset Managem HorizonMajor ShareholderBuy16$602.00$9,632.00  
8/3/2020Kinetics Asset Managem HorizonMajor ShareholderBuy12$539.99$6,479.88  
7/31/2020Kinetics Asset Managem HorizonMajor ShareholderBuy16$532.99$8,527.84  
7/29/2020Kinetics Asset Managem HorizonMajor ShareholderBuy12$562.00$6,744.00  
7/27/2020Kinetics Asset Managem HorizonMajor ShareholderBuy12$555.00$6,660.00  
7/24/2020Kinetics Asset Managem HorizonMajor ShareholderBuy12$560.02$6,720.24  
7/22/2020Kinetics Asset Managem HorizonMajor ShareholderBuy12$573.82$6,885.84  
7/20/2020Kinetics Asset Managem HorizonMajor ShareholderBuy172$575.01$98,901.72  
7/17/2020Kinetics Asset Managem HorizonMajor ShareholderBuy172$585.71$100,742.12  
7/15/2020Kinetics Asset Managem HorizonMajor ShareholderBuy172$596.73$102,637.56  
7/13/2020Kinetics Asset Managem HorizonMajor ShareholderBuy172$537.02$92,367.44  
7/10/2020Kinetics Asset Managem HorizonMajor ShareholderBuy172$547.00$94,084.00  
7/8/2020Kinetics Asset Managem HorizonMajor ShareholderBuy172$561.01$96,493.72  
7/6/2020Kinetics Asset Managem HorizonMajor ShareholderBuy236$569.99$134,517.64  
7/1/2020Kinetics Asset Managem HorizonMajor ShareholderBuy236$578.40$136,502.40  
6/29/2020Kinetics Asset Managem HorizonMajor ShareholderBuy236$570.01$134,522.36  
6/26/2020Kinetics Asset Managem HorizonMajor ShareholderBuy236$572.15$135,027.40  
6/24/2020Kinetics Asset Managem HorizonMajor ShareholderBuy236$572.00$134,992.00  
6/22/2020Kinetics Asset Managem HorizonMajor ShareholderBuy236$614.11$144,929.96  
6/19/2020Kinetics Asset Managem HorizonMajor ShareholderBuy936$624.04$584,101.44  
6/17/2020Kinetics Asset Managem HorizonMajor ShareholderBuy236$625.12$147,528.32  
6/15/2020Kinetics Asset Managem HorizonMajor ShareholderBuy236$625.57$147,634.52  
6/12/2020Kinetics Asset Managem HorizonMajor ShareholderBuy238$627.00$149,226.00  
5/15/2020Kinetics Asset Managem HorizonMajor ShareholderBuy5$524.35$2,621.75  
5/13/2020Kinetics Asset Managem HorizonMajor ShareholderBuy414$511.71$211,847.94  
5/11/2020Kinetics Asset Managem HorizonMajor ShareholderBuy288$520.19$149,814.72  
5/8/2020Kinetics Asset Managem HorizonMajor ShareholderBuy176$521.55$91,792.80  
4/13/2020Kinetics Asset Managem HorizonMajor ShareholderBuy1$515.10$515.10  
4/8/2020Kinetics Asset Managem HorizonMajor ShareholderBuy1$471.03$471.03  
4/6/2020Kinetics Asset Managem HorizonMajor ShareholderBuy1$475.03$475.03  
4/3/2020Kinetics Asset Managem HorizonMajor ShareholderBuy3$457.87$1,373.61  
3/26/2020Kinetics Asset Managem HorizonMajor ShareholderBuy10$370.01$3,700.10  
3/23/2020Kinetics Asset Managem HorizonMajor ShareholderBuy18$308.34$5,550.12  
3/20/2020Kinetics Asset Managem HorizonMajor ShareholderBuy29$352.86$10,232.94  
3/18/2020Kinetics Asset Managem HorizonMajor ShareholderBuy32$310.94$9,950.08  
3/12/2020Kinetics Asset Managem HorizonMajor ShareholderBuy11$410.01$4,510.11  
3/9/2020Kinetics Asset Managem HorizonMajor ShareholderBuy8$467.21$3,737.68  
3/5/2020Kinetics Asset Managem HorizonMajor ShareholderBuy1$655.81$655.81  
3/3/2020Kinetics Asset Managem HorizonMajor ShareholderBuy1$671.08$671.08  
2/28/2020Kinetics Asset Managem HorizonMajor ShareholderBuy1$695.80$695.80  
2/24/2020Kinetics Asset Managem HorizonMajor ShareholderBuy2$754.00$1,508.00  
2/12/2020Kinetics Asset Managem HorizonMajor ShareholderBuy92$787.75$72,473.00  
2/10/2020Kinetics Asset Managem HorizonMajor ShareholderBuy106$777.46$82,410.76  
2/6/2020Kinetics Asset Managem HorizonMajor ShareholderBuy8$803.97$6,431.76  
2/4/2020Kinetics Asset Managem HorizonMajor ShareholderBuy135$780.04$105,305.40  
1/31/2020Kinetics Asset Managem HorizonMajor ShareholderBuy135$755.71$102,020.85  
1/29/2020Kinetics Asset Managem HorizonMajor ShareholderBuy203$742.00$150,626.00  
1/27/2020Kinetics Asset Managem HorizonMajor ShareholderBuy137$735.13$100,712.81  
1/23/2020Kinetics Asset Managem HorizonMajor ShareholderBuy135$759.00$102,465.00  
1/21/2020Kinetics Asset Managem HorizonMajor ShareholderBuy135$781.94$105,561.90  
1/17/2020Kinetics Asset Managem HorizonMajor ShareholderBuy142$792.86$112,586.12  
1/15/2020Kinetics Asset Managem HorizonMajor ShareholderBuy150$795.92$119,388.00  
1/13/2020Kinetics Asset Managem HorizonMajor ShareholderBuy150$804.90$120,735.00  
1/10/2020Kinetics Asset Managem HorizonMajor ShareholderBuy150$809.28$121,392.00  
1/8/2020Kinetics Asset Managem HorizonMajor ShareholderBuy150$819.37$122,905.50  
1/6/2020Kinetics Asset Managem HorizonMajor ShareholderBuy10$803.50$8,035.00  
1/2/2020Kinetics Asset Managem HorizonMajor ShareholderBuy10$784.50$7,845.00  
12/30/2019Kinetics Asset Managem HorizonMajor ShareholderBuy8$788.34$6,306.72  
12/20/2019Kinetics Asset Managem HorizonMajor ShareholderBuy41$765.92$31,402.72  
12/18/2019Kinetics Asset Managem HorizonMajor ShareholderBuy41$708.12$29,032.92  
12/16/2019Kinetics Asset Managem HorizonMajor ShareholderBuy47$695.05$32,667.35  
12/13/2019Kinetics Asset Managem HorizonMajor ShareholderBuy40$683.86$27,354.40  
12/11/2019Kinetics Asset Managem HorizonMajor ShareholderBuy40$675.02$27,000.80  
12/9/2019Kinetics Asset Managem HorizonMajor ShareholderBuy40$668.94$26,757.60  
12/6/2019Kinetics Asset Managem HorizonMajor ShareholderBuy33$667.55$22,029.15  
12/2/2019Kinetics Asset Managem HorizonMajor ShareholderBuy37$650.00$24,050.00  
11/29/2019Kinetics Asset Managem HorizonMajor ShareholderBuy33$674.98$22,274.34  
11/27/2019Kinetics Asset Managem HorizonMajor ShareholderBuy33$675.99$22,307.67  
11/25/2019Kinetics Asset Managem HorizonMajor ShareholderBuy33$676.00$22,308.00  
11/22/2019Kinetics Asset Managem HorizonMajor ShareholderBuy26$670.00$17,420.00  
11/20/2019Kinetics Asset Managem HorizonMajor ShareholderBuy46$690.18$31,748.28  
11/18/2019Kinetics Asset Managem HorizonMajor ShareholderBuy25$665.05$16,626.25  
11/15/2019Kinetics Asset Managem HorizonMajor ShareholderBuy109$665.00$72,485.00  
11/13/2019Kinetics Asset Managem HorizonMajor ShareholderBuy23$664.37$15,280.51  
11/11/2019Kinetics Asset Managem HorizonMajor ShareholderBuy51$647.54$33,024.54  
11/8/2019Kinetics Asset Managem HorizonMajor ShareholderBuy28$645.00$18,060.00  
11/6/2019Kinetics Asset Managem HorizonMajor ShareholderBuy9$654.49$5,890.41  
11/4/2019Kinetics Asset Managem HorizonMajor ShareholderBuy9$647.83$5,830.47  
11/1/2019Kinetics Asset Managem HorizonMajor ShareholderBuy496$622.78$308,898.88  
10/30/2019Kinetics Asset Managem HorizonMajor ShareholderBuy14$594.46$8,322.44313,325  
10/28/2019Kinetics Asset Managem HorizonMajor ShareholderBuy9$607.00$5,463.00  
10/25/2019Kinetics Asset Managem HorizonMajor ShareholderBuy9$607.73$5,469.57  
10/23/2019Kinetics Asset Managem HorizonMajor ShareholderBuy9$613.70$5,523.30  
10/21/2019Kinetics Asset Managem HorizonMajor ShareholderBuy9$596.85$5,371.65  
10/18/2019Kinetics Asset Managem HorizonMajor ShareholderBuy9$600.03$5,400.27  
10/16/2019Kinetics Asset Managem HorizonMajor ShareholderBuy9$618.50$5,566.50  
10/14/2019Kinetics Asset Managem HorizonMajor ShareholderBuy9$609.45$5,485.05  
10/11/2019Kinetics Asset Managem HorizonMajor ShareholderBuy9$621.50$5,593.50  
10/9/2019Kinetics Asset Managem HorizonMajor ShareholderBuy7$618.50$4,329.50  
10/7/2019Kinetics Asset Managem HorizonMajor ShareholderBuy7$606.25$4,243.75  
10/4/2019Kinetics Asset Managem HorizonMajor ShareholderBuy5$600.03$3,000.15  
10/2/2019Kinetics Asset Managem HorizonMajor ShareholderBuy5$610.98$3,054.90  
9/30/2019Kinetics Asset Managem HorizonMajor ShareholderBuy5$643.24$3,216.20  
9/26/2019Kinetics Asset Managem HorizonMajor ShareholderBuy5$642.55$3,212.75  
9/24/2019Kinetics Asset Managem HorizonMajor ShareholderBuy5$651.51$3,257.55  
9/16/2019Kinetics Asset Managem HorizonMajor ShareholderBuy49$705.71$34,579.79  
9/13/2019Kinetics Asset Managem HorizonMajor ShareholderBuy49$673.78$33,015.22  
9/11/2019Kinetics Asset Managem HorizonMajor ShareholderBuy49$655.86$32,137.14  
9/9/2019Kinetics Asset Managem HorizonMajor ShareholderBuy49$686.90$33,658.10  
9/6/2019Kinetics Asset Managem HorizonMajor ShareholderBuy49$697.48$34,176.52  
9/4/2019Kinetics Asset Managem HorizonMajor ShareholderBuy49$670.27$32,843.23  
8/28/2019Kinetics Asset Managem HorizonMajor ShareholderBuy49$641.58$31,437.42  
8/26/2019Kinetics Asset Managem HorizonMajor ShareholderBuy49$636.08$31,167.92  
8/23/2019Kinetics Asset Managem HorizonMajor ShareholderBuy49$668.39$32,751.11  
8/21/2019Kinetics Asset Managem HorizonMajor ShareholderBuy49$669.37$32,799.13  
8/19/2019Kinetics Asset Managem HorizonMajor ShareholderBuy49$679.36$33,288.64  
8/16/2019Kinetics Asset Managem HorizonMajor ShareholderBuy49$671.46$32,901.54  
8/14/2019Kinetics Asset Managem HorizonMajor ShareholderBuy188$641.00$120,508.00  
8/12/2019Kinetics Asset Managem HorizonMajor ShareholderBuy49$679.65$33,302.85  
8/9/2019Kinetics Asset Managem HorizonMajor ShareholderBuy49$673.70$33,011.30  
8/7/2019Kinetics Asset Managem HorizonMajor ShareholderBuy49$659.12$32,296.88  
8/5/2019Kinetics Asset Managem HorizonMajor ShareholderBuy49$689.76$33,798.24  
8/2/2019Kinetics Asset Managem HorizonMajor ShareholderBuy49$720.23$35,291.27  
7/31/2019Kinetics Asset Managem HorizonMajor ShareholderBuy49$800.00$39,200.00  
7/29/2019Kinetics Asset Managem HorizonMajor ShareholderBuy49$740.50$36,284.50  
7/26/2019Kinetics Asset Managem HorizonMajor ShareholderBuy49$749.50$36,725.50  
7/24/2019Kinetics Asset Managem HorizonMajor ShareholderBuy49$753.12$36,902.88  
7/22/2019Kinetics Asset Managem HorizonMajor ShareholderBuy49$768.84$37,673.16  
7/19/2019Kinetics Asset Managem HorizonMajor ShareholderBuy49$764.50$37,460.50  
7/17/2019Kinetics Asset Managem HorizonMajor ShareholderBuy157$769.49$120,809.93  
7/15/2019Kinetics Asset Managem HorizonMajor ShareholderBuy49$795.00$38,955.00  
7/12/2019Kinetics Asset Managem HorizonMajor ShareholderBuy49$798.15$39,109.35  
7/10/2019Kinetics Asset Managem HorizonMajor ShareholderBuy50$797.58$39,879.00  
7/8/2019Kinetics Asset Managem HorizonMajor ShareholderBuy50$810.20$40,510.00  
7/5/2019Kinetics Asset Managem HorizonMajor ShareholderBuy50$798.67$39,933.50  
7/3/2019Kinetics Asset Managem HorizonMajor ShareholderBuy50$793.74$39,687.00  
7/1/2019Kinetics Asset Managem HorizonMajor ShareholderBuy50$799.99$39,999.50  
6/28/2019Kinetics Asset Managem HorizonMajor ShareholderBuy50$795.24$39,762.00  
6/26/2019Kinetics Asset Managem HorizonMajor ShareholderBuy50$817.18$40,859.00  
6/24/2019Kinetics Asset Managem HorizonMajor ShareholderBuy50$782.12$39,106.00  
6/21/2019Kinetics Asset Managem HorizonMajor ShareholderBuy50$791.07$39,553.50  
6/19/2019Kinetics Asset Managem HorizonMajor ShareholderBuy50$755.88$37,794.00  
6/17/2019Kinetics Asset Managem HorizonMajor ShareholderBuy50$718.96$35,948.00  
6/14/2019Kinetics Asset Managem HorizonMajor ShareholderBuy50$739.99$36,999.50  
6/12/2019Kinetics Asset Managem HorizonMajor ShareholderBuy50$744.22$37,211.00  
6/10/2019Kinetics Asset Managem HorizonMajor ShareholderBuy50$764.77$38,238.50  
6/7/2019Kinetics Asset Managem HorizonMajor ShareholderBuy50$749.91$37,495.50  
6/5/2019Kinetics Asset Managem HorizonMajor ShareholderBuy50$730.07$36,503.50  
6/3/2019Kinetics Asset Managem HorizonMajor ShareholderBuy50$738.78$36,939.00  
5/30/2019Kinetics Asset Managem HorizonMajor ShareholderBuy50$799.00$39,950.00  
5/28/2019Kinetics Asset Managem HorizonMajor ShareholderBuy50$790.32$39,516.00  
5/24/2019Kinetics Asset Managem HorizonMajor ShareholderBuy50$790.09$39,504.50  
5/22/2019Kinetics Asset Managem HorizonMajor ShareholderBuy36$831.23$29,924.28  
5/20/2019Kinetics Asset Managem HorizonMajor ShareholderBuy36$860.09$30,963.24  
5/17/2019Kinetics Asset Managem HorizonMajor ShareholderBuy36$845.42$30,435.12  
5/15/2019Kinetics Asset Managem HorizonMajor ShareholderBuy36$837.84$30,162.24  
5/13/2019Kinetics Asset Managem HorizonMajor ShareholderBuy36$787.20$28,339.20  
5/10/2019Kinetics Asset Managem HorizonMajor ShareholderBuy36$780.78$28,108.08  
5/8/2019Kinetics Asset Managem HorizonMajor ShareholderBuy36$799.98$28,799.28  
5/6/2019Kinetics Asset Managem HorizonMajor ShareholderBuy36$807.23$29,060.28  
5/3/2019Horizon Kinetics LlcMajor ShareholderBuy36$807.20$29,059.20  
5/1/2019Horizon Kinetics LlcMajor ShareholderBuy36$806.68$29,040.48  
4/29/2019Horizon Kinetics LlcMajor ShareholderBuy36$837.93$30,165.48  
4/26/2019Horizon Kinetics LlcMajor ShareholderBuy36$879.00$31,644.00  
4/24/2019Horizon Kinetics LlcMajor ShareholderBuy36$899.87$32,395.32  
4/22/2019Horizon Kinetics LlcMajor ShareholderBuy36$896.07$32,258.52  
4/17/2019Horizon Kinetics LlcMajor ShareholderBuy42$887.23$37,263.66  
4/15/2019Horizon Kinetics LlcMajor ShareholderBuy42$903.05$37,928.10  
4/12/2019Horizon Kinetics LlcMajor ShareholderBuy42$903.52$37,947.84  
4/10/2019Horizon Kinetics LlcMajor ShareholderBuy42$874.06$36,710.52  
4/8/2019Horizon Kinetics LlcMajor ShareholderBuy7$814.50$5,701.50  
4/5/2019Horizon Kinetics LlcMajor ShareholderBuy42$792.27$33,275.34  
4/3/2019Horizon Kinetics LlcMajor ShareholderBuy42$797.88$33,510.96  
4/1/2019Horizon Kinetics LlcMajor ShareholderBuy42$784.30$32,940.60  
3/29/2019Horizon Kinetics LlcMajor ShareholderBuy42$773.48$32,486.16  
3/27/2019Horizon Kinetics LlcMajor ShareholderBuy42$774.38$32,523.96  
3/25/2019Horizon Kinetics LlcMajor ShareholderBuy42$725.36$30,465.12  
3/22/2019Horizon Kinetics LlcMajor ShareholderBuy42$751.10$31,546.20  
3/20/2019Horizon Kinetics LlcMajor ShareholderBuy42$765.98$32,171.16  
3/18/2019Horizon Kinetics LlcMajor ShareholderBuy42$741.16$31,128.72  
3/15/2019Horizon Kinetics LlcMajor ShareholderBuy42$748.14$31,421.88  
12/26/2018David E BarryInsiderBuy100$467.06$46,706.00300  
12/4/2018Robert J PackerCFOBuy100$589.00$58,900.00200  
11/19/2018Maurice Meyer IIIInsiderSell500$607.26$303,630.0060,546  
11/15/2018Maurice Meyer IIIInsiderSell1,000$573.10$573,100.0061,546  
10/11/2018David E BarryInsiderBuy100$810.00$81,000.00200  
10/3/2018Maurice Meyer IIIInsiderSell109$874.00$95,266.0062,046  
9/26/2018Maurice Meyer IIIInsiderSell1,000$860.80$860,800.0062,555  
9/12/2018Maurice Meyer IIIInsiderSell500$835.00$417,500.0063,220  
8/27/2018Maurice Meyer IIIInsiderSell1,000$854.13$854,130.0064,220  
3/3/2017Robert J PackerCFOBuy100$293.76$29,376.00100  
(Data available from 1/1/2013 forward)
This page was last updated on 10/27/2020 by MarketBeat.com Staff

Enter your email address below to receive a concise daily summary of analysts' upgrades, downgrades and new coverage with MarketBeat.com's FREE daily email newsletter.